Terminal Aerodrome Forecast
Issued by NWS

Home | Current Version | Previous Version | Text Only | Print | Product List | Glossary On
Versions: 1 2 3 4 5 6 7 8 9 10 11 12
000
FTUS45 KABQ 272333
TAFTCC
TAF
KTCC 272333Z 2800/2824 19015G25KT P6SM SCT080
     FM280200 16013KT P6SM SCT080 BKN120
     FM281100 10008KT P6SM VCSH BKN050 BKN100
      TEMPO 2811/2815 03008KT
     FM281500 17012KT P6SM VCSH BKN050 BKN100
     FM282100 20015G22KT P6SM VCSH BKN070 BKN120=

USA.gov is the U.S. government's official web portal to all federal, state and local government web resources and services.